Time;durP1;ratioP1;P1;durP2;ratioP2;P2;SDS_P1;SDS_P2;PMS_P1;PMS_P2;Temp;Humidity;BMP_temperature;BMP_pressure;BME280_temperature;BME280_humidity;BME280_pressure;Samples;Min_cycle;Max_cycle;Signal;HPM_P1;HPM_P2
2023/05/22 00:00:07;;;;;;;20.83;13.50;;;;;;;;;;5013649;28;20413;-46
2023/05/22 00:02:43;;;;;;;18.50;13.73;;;;;;;;;;5013164;28;20462;-47
2023/05/22 00:05:09;;;;;;;20.47;15.37;;;;;;;;;;5013443;28;20415;-46
2023/05/22 00:07:36;;;;;;;19.30;14.23;;;;;;;;;;5012895;28;20854;-46
2023/05/22 00:10:02;;;;;;;22.33;15.07;;;;;;;;;;5012305;28;20442;-47
2023/05/22 00:12:27;;;;;;;20.03;15.53;;;;;;;;;;5013268;28;20439;-46
2023/05/22 00:14:53;;;;;;;20.30;15.83;;;;;;;;;;5011985;28;20423;-46
2023/05/22 00:17:19;;;;;;;19.53;15.70;;;;;;;;;;5012762;28;20817;-46
2023/05/22 00:19:46;;;;;;;25.03;17.40;;;;;;;;;;5013078;28;20418;-46
2023/05/22 00:22:12;;;;;;;21.20;16.20;;;;;;;;;;5012957;28;20454;-47
2023/05/22 00:24:38;;;;;;;19.37;14.60;;;;;;;;;;5013068;28;20439;-46
2023/05/22 00:27:04;;;;;;;19.27;14.70;;;;;;;;;;5012564;28;20457;-46
2023/05/22 00:29:30;;;;;;;20.60;15.23;;;;;;;;;;5012814;28;20895;-46
2023/05/22 00:31:56;;;;;;;19.40;15.23;;;;;;;;;;5012761;28;20410;-46
2023/05/22 00:34:22;;;;;;;20.07;14.50;;;;;;;;;;5013024;28;20550;-46
2023/05/22 00:36:48;;;;;;;17.40;13.80;;;;;;;;;;5012523;28;20415;-46
2023/05/22 00:39:14;;;;;;;17.70;15.40;;;;;;;;;;5014242;28;20430;-47
2023/05/22 00:41:40;;;;;;;19.07;15.17;;;;;;;;;;5011975;28;20415;-46
2023/05/22 00:44:06;;;;;;;19.83;16.00;;;;;;;;;;5012509;28;20459;-46
2023/05/22 00:46:32;;;;;;;21.27;15.20;;;;;;;;;;5012210;28;20443;-46
2023/05/22 00:48:58;;;;;;;18.83;13.80;;;;;;;;;;5012816;28;20493;-46
2023/05/22 00:51:25;;;;;;;18.17;14.87;;;;;;;;;;5012506;28;20443;-47
2023/05/22 00:53:52;;;;;;;17.03;14.07;;;;;;;;;;5012568;28;20495;-46
2023/05/22 00:56:18;;;;;;;15.20;13.43;;;;;;;;;;5012183;28;20509;-46
2023/05/22 00:58:44;;;;;;;17.10;13.53;;;;;;;;;;5012185;28;20392;-46
2023/05/22 01:01:11;;;;;;;16.40;12.80;;;;;;;;;;5011985;28;20415;-47
2023/05/22 01:03:43;;;;;;;15.87;13.27;;;;;;;;;;5011720;28;20512;-47
2023/05/22 01:06:10;;;;;;;18.70;13.77;;;;;;;;;;5011231;28;20984;-47
2023/05/22 01:08:36;;;;;;;15.37;12.80;;;;;;;;;;5011436;28;20406;-46
2023/05/22 01:11:22;;;;;;;19.13;13.90;;;;;;;;;;5010330;28;20411;-46
2023/05/22 01:14:00;;;;;;;18.30;14.30;;;;;;;;;;5011471;28;20489;-45
2023/05/22 01:16:31;;;;;;;16.47;12.50;;;;;;;;;;5011854;28;20496;-47
2023/05/22 01:18:57;;;;;;;22.20;14.20;;;;;;;;;;5008573;28;20430;-46
2023/05/22 01:21:29;;;;;;;16.37;14.20;;;;;;;;;;5012231;28;20483;-47
2023/05/22 01:24:14;;;;;;;19.03;14.97;;;;;;;;;;5011938;28;20990;-46
2023/05/22 01:26:52;;;;;;;16.37;14.10;;;;;;;;;;5011987;28;20845;-47
2023/05/22 01:29:27;;;;;;;18.10;14.67;;;;;;;;;;5012138;28;20444;-47
2023/05/22 01:31:55;;;;;;;15.33;12.67;;;;;;;;;;5012078;28;20411;-45
2023/05/22 01:34:21;;;;;;;16.13;13.50;;;;;;;;;;5011891;28;20409;-46
2023/05/22 01:36:48;;;;;;;20.10;15.27;;;;;;;;;;5011604;28;20902;-48
2023/05/22 01:39:14;;;;;;;22.30;15.17;;;;;;;;;;5014529;28;20411;-46
2023/05/22 01:41:40;;;;;;;19.80;15.37;;;;;;;;;;5010583;28;20904;-46
2023/05/22 01:44:06;;;;;;;18.10;14.30;;;;;;;;;;5011502;28;20536;-47
2023/05/22 01:46:32;;;;;;;20.77;15.13;;;;;;;;;;5011464;28;20956;-46
2023/05/22 01:48:58;;;;;;;19.50;14.20;;;;;;;;;;5011904;28;20438;-47
2023/05/22 01:51:27;;;;;;;19.87;15.57;;;;;;;;;;5011931;28;20408;-47
2023/05/22 01:54:08;;;;;;;17.20;13.90;;;;;;;;;;5012143;28;20513;-46
2023/05/22 01:56:47;;;;;;;21.10;15.47;;;;;;;;;;5011757;28;20387;-47
2023/05/22 01:59:18;;;;;;;19.53;14.30;;;;;;;;;;5011881;28;20509;-45
2023/05/22 02:01:45;;;;;;;16.47;14.03;;;;;;;;;;5012246;28;20607;-46
2023/05/22 02:04:13;;;;;;;15.60;13.90;;;;;;;;;;5007973;28;20557;-46
2023/05/22 02:06:39;;;;;;;19.10;13.80;;;;;;;;;;5010226;28;20814;-47
2023/05/22 02:09:07;;;;;;;22.73;15.70;;;;;;;;;;5011952;28;20403;-47
2023/05/22 02:11:34;;;;;;;19.63;15.03;;;;;;;;;;5011062;28;20430;-47
2023/05/22 02:14:00;;;;;;;20.60;15.00;;;;;;;;;;5011729;28;20434;-47
2023/05/22 02:16:27;;;;;;;18.83;15.27;;;;;;;;;;5011843;28;20784;-45
2023/05/22 02:19:01;;;;;;;17.27;13.93;;;;;;;;;;5014316;28;20395;-47
2023/05/22 02:21:27;;;;;;;21.10;15.77;;;;;;;;;;5015922;28;20808;-45
2023/05/22 02:23:53;;;;;;;17.43;15.07;;;;;;;;;;5022741;28;20902;-47
2023/05/22 02:26:20;;;;;;;28.70;14.70;;;;;;;;;;5015133;28;20977;-47
2023/05/22 02:28:46;;;;;;;19.37;16.20;;;;;;;;;;5015723;28;20409;-46
2023/05/22 02:31:11;;;;;;;20.57;14.93;;;;;;;;;;5015563;28;20389;-45
2023/05/22 02:33:37;;;;;;;19.40;14.37;;;;;;;;;;5015390;28;20439;-45
2023/05/22 02:36:03;;;;;;;18.97;15.20;;;;;;;;;;5015433;28;20402;-47
2023/05/22 02:38:29;;;;;;;20.43;15.47;;;;;;;;;;5013658;28;20962;-46
2023/05/22 02:40:55;;;;;;;22.40;16.60;;;;;;;;;;5015317;28;20410;-46
2023/05/22 02:43:21;;;;;;;22.50;16.03;;;;;;;;;;5015193;28;20443;-45
2023/05/22 02:45:47;;;;;;;21.90;14.50;;;;;;;;;;5015287;28;20493;-46
2023/05/22 02:48:13;;;;;;;25.00;14.53;;;;;;;;;;5014919;28;20433;-46
2023/05/22 02:50:39;;;;;;;21.57;16.37;;;;;;;;;;5015578;28;20403;-45
2023/05/22 02:53:06;;;;;;;19.83;15.67;;;;;;;;;;5015308;28;20405;-45
2023/05/22 02:55:31;;;;;;;21.70;15.17;;;;;;;;;;5014987;28;20391;-45
2023/05/22 02:57:57;;;;;;;18.00;15.40;;;;;;;;;;5014693;28;20415;-45
2023/05/22 03:00:23;;;;;;;26.40;16.17;;;;;;;;;;5018121;28;20421;-45
2023/05/22 03:02:50;;;;;;;21.50;14.40;;;;;;;;;;5014659;28;20521;-45
2023/05/22 03:05:16;;;;;;;19.73;16.60;;;;;;;;;;5015033;28;20460;-45
2023/05/22 03:07:42;;;;;;;19.67;15.73;;;;;;;;;;5013587;28;20468;-45
2023/05/22 03:10:08;;;;;;;18.17;15.80;;;;;;;;;;5014413;28;20400;-47
2023/05/22 03:12:34;;;;;;;24.10;17.10;;;;;;;;;;5014605;28;20776;-46
2023/05/22 03:15:00;;;;;;;26.23;16.33;;;;;;;;;;5014792;28;20504;-45
2023/05/22 03:17:26;;;;;;;21.20;16.60;;;;;;;;;;5014375;28;20468;-45
2023/05/22 03:19:52;;;;;;;20.87;16.57;;;;;;;;;;5014663;28;20389;-47
2023/05/22 03:22:18;;;;;;;21.73;16.27;;;;;;;;;;5014509;28;20924;-45
2023/05/22 03:24:44;;;;;;;23.50;15.40;;;;;;;;;;5014413;28;20389;-45
2023/05/22 03:27:11;;;;;;;25.30;17.63;;;;;;;;;;5014257;28;20447;-46
2023/05/22 03:29:37;;;;;;;25.13;17.47;;;;;;;;;;5014174;28;20477;-45
2023/05/22 03:32:03;;;;;;;18.40;15.27;;;;;;;;;;5014493;28;20909;-46
2023/05/22 03:34:31;;;;;;;22.77;17.40;;;;;;;;;;5014395;28;20389;-46
2023/05/22 03:36:57;;;;;;;23.83;18.00;;;;;;;;;;5006043;28;20478;-46
2023/05/22 03:39:23;;;;;;;21.10;16.17;;;;;;;;;;5013517;28;20407;-46
2023/05/22 03:41:49;;;;;;;21.27;16.20;;;;;;;;;;5014334;28;20385;-46
2023/05/22 03:44:15;;;;;;;20.07;15.07;;;;;;;;;;5014342;28;20861;-46
2023/05/22 03:46:41;;;;;;;22.27;15.67;;;;;;;;;;5013826;28;20438;-45
2023/05/22 03:49:06;;;;;;;20.03;14.93;;;;;;;;;;5014280;28;20379;-46
2023/05/22 03:51:32;;;;;;;20.67;14.70;;;;;;;;;;5014186;28;20905;-46
2023/05/22 03:53:58;;;;;;;19.57;15.60;;;;;;;;;;5014149;28;21001;-46
2023/05/22 03:56:25;;;;;;;20.27;14.70;;;;;;;;;;5013945;28;20912;-47
2023/05/22 03:58:51;;;;;;;17.87;15.33;;;;;;;;;;5013991;28;20388;-47
2023/05/22 04:01:17;;;;;;;34.63;17.70;;;;;;;;;;5014121;28;20415;-46
2023/05/22 04:03:43;;;;;;;21.37;16.67;;;;;;;;;;5013942;28;20407;-46
2023/05/22 04:06:09;;;;;;;18.33;15.30;;;;;;;;;;5013548;28;20409;-47
2023/05/22 04:08:35;;;;;;;19.77;15.00;;;;;;;;;;5012890;28;20435;-46
2023/05/22 04:11:02;;;;;;;22.40;16.10;;;;;;;;;;5013256;28;20423;-46
2023/05/22 04:13:32;;;;;;;22.63;17.10;;;;;;;;;;5013897;28;20795;-46
2023/05/22 04:15:57;;;;;;;23.03;17.93;;;;;;;;;;5005596;28;20412;-46
2023/05/22 04:18:24;;;;;;;21.47;15.17;;;;;;;;;;5013655;28;20401;-46
2023/05/22 04:20:50;;;;;;;24.07;17.57;;;;;;;;;;5013490;28;20403;-47
2023/05/22 04:23:16;;;;;;;22.70;16.50;;;;;;;;;;5013563;28;20770;-46
2023/05/22 04:25:43;;;;;;;21.93;17.80;;;;;;;;;;5013628;28;20390;-46
2023/05/22 04:28:09;;;;;;;22.10;15.07;;;;;;;;;;5013183;28;20505;-47
2023/05/22 04:30:36;;;;;;;20.63;16.17;;;;;;;;;;5013585;28;20431;-46
2023/05/22 04:33:04;;;;;;;20.70;16.00;;;;;;;;;;5013378;28;20429;-46
2023/05/22 04:35:30;;;;;;;23.60;16.73;;;;;;;;;;5013158;28;20439;-46
2023/05/22 04:38:02;;;;;;;26.97;16.63;;;;;;;;;;5011854;28;20425;-46
2023/05/22 04:40:29;;;;;;;22.40;16.67;;;;;;;;;;5008111;28;21044;-46
2023/05/22 04:42:58;;;;;;;26.03;15.53;;;;;;;;;;5013699;28;20423;-46
2023/05/22 04:45:24;;;;;;;22.87;18.80;;;;;;;;;;5012458;28;20377;-47
2023/05/22 04:47:51;;;;;;;23.53;17.27;;;;;;;;;;5028283;28;20426;-47
2023/05/22 04:50:18;;;;;;;25.43;17.97;;;;;;;;;;5006881;28;20801;-47
2023/05/22 04:52:44;;;;;;;18.60;15.77;;;;;;;;;;5010768;28;20435;-46
2023/05/22 04:55:12;;;;;;;20.67;16.87;;;;;;;;;;5012518;28;20385;-47
2023/05/22 04:57:39;;;;;;;20.93;17.23;;;;;;;;;;5012112;28;20766;-47
2023/05/22 05:00:06;;;;;;;24.33;18.00;;;;;;;;;;5012311;28;20376;-47
2023/05/22 05:02:32;;;;;;;23.30;17.70;;;;;;;;;;5010843;28;20413;-46
2023/05/22 05:04:58;;;;;;;24.73;18.33;;;;;;;;;;5012291;28;20480;-48
2023/05/22 05:07:24;;;;;;;26.53;18.57;;;;;;;;;;5011562;28;20440;-47
2023/05/22 05:09:50;;;;;;;30.60;20.43;;;;;;;;;;5012064;28;20520;-46
2023/05/22 05:12:16;;;;;;;25.07;18.73;;;;;;;;;;5012046;28;20431;-48
2023/05/22 05:14:42;;;;;;;32.70;20.57;;;;;;;;;;5012272;28;20420;-46
2023/05/22 05:17:08;;;;;;;23.50;17.77;;;;;;;;;;5011667;28;20428;-47
2023/05/22 05:19:36;;;;;;;23.87;16.77;;;;;;;;;;5011983;28;20397;-48
2023/05/22 05:22:02;;;;;;;27.17;19.97;;;;;;;;;;5012077;28;20486;-49
2023/05/22 05:24:28;;;;;;;29.37;20.30;;;;;;;;;;5011979;28;20439;-47
2023/05/22 05:26:53;;;;;;;26.20;20.27;;;;;;;;;;5011606;28;20451;-46
2023/05/22 05:29:20;;;;;;;32.97;20.10;;;;;;;;;;5011865;28;20415;-46
2023/05/22 05:31:46;;;;;;;26.00;19.27;;;;;;;;;;5011836;28;20425;-46
2023/05/22 05:34:12;;;;;;;31.07;21.07;;;;;;;;;;5012021;28;20908;-47
2023/05/22 05:36:38;;;;;;;23.30;20.40;;;;;;;;;;5013108;28;20411;-47
2023/05/22 05:39:04;;;;;;;28.87;19.60;;;;;;;;;;5011391;28;20463;-47
2023/05/22 05:41:30;;;;;;;26.23;18.30;;;;;;;;;;5011843;28;20438;-48
2023/05/22 05:43:58;;;;;;;22.00;16.60;;;;;;;;;;5011756;28;20512;-48
2023/05/22 05:46:24;;;;;;;18.53;15.87;;;;;;;;;;5011392;28;20455;-48
2023/05/22 05:48:50;;;;;;;25.30;16.00;;;;;;;;;;5011954;28;20425;-48
2023/05/22 05:51:16;;;;;;;18.50;16.10;;;;;;;;;;5011761;28;20402;-47
2023/05/22 05:53:42;;;;;;;21.40;16.50;;;;;;;;;;5015556;28;20895;-48
2023/05/22 05:56:09;;;;;;;19.93;16.17;;;;;;;;;;5015660;28;20410;-47
2023/05/22 05:58:35;;;;;;;21.00;18.30;;;;;;;;;;5015529;28;20809;-47
2023/05/22 06:01:01;;;;;;;25.67;18.13;;;;;;;;;;5014979;28;20460;-49
2023/05/22 06:03:28;;;;;;;22.87;17.83;;;;;;;;;;5015023;28;20882;-47
2023/05/22 06:05:54;;;;;;;26.33;17.10;;;;;;;;;;5014950;28;20493;-46
2023/05/22 06:08:20;;;;;;;27.70;19.13;;;;;;;;;;5014313;28;20897;-48
2023/05/22 06:10:47;;;;;;;25.80;19.53;;;;;;;;;;5014411;28;20434;-47
2023/05/22 06:13:13;;;;;;;27.00;20.27;;;;;;;;;;5014685;28;20779;-46
2023/05/22 06:15:39;;;;;;;25.23;19.50;;;;;;;;;;5014759;28;20421;-48
2023/05/22 06:18:05;;;;;;;23.43;19.33;;;;;;;;;;5014601;28;20474;-47
2023/05/22 06:20:31;;;;;;;26.97;20.30;;;;;;;;;;5014729;28;20403;-46
2023/05/22 06:22:58;;;;;;;31.33;19.47;;;;;;;;;;5015317;28;20534;-45
2023/05/22 06:25:28;;;;;;;23.63;19.17;;;;;;;;;;5015088;28;20960;-47
2023/05/22 06:27:54;;;;;;;23.70;17.07;;;;;;;;;;5014523;28;20475;-47
2023/05/22 06:30:20;;;;;;;28.97;18.00;;;;;;;;;;5014861;28;20405;-47
2023/05/22 06:32:46;;;;;;;27.60;19.87;;;;;;;;;;5014797;28;20431;-46
2023/05/22 06:35:12;;;;;;;23.07;19.47;;;;;;;;;;5017228;28;20422;-46
2023/05/22 06:37:38;;;;;;;23.37;18.53;;;;;;;;;;5013599;28;20482;-47
2023/05/22 06:40:07;;;;;;;24.40;19.00;;;;;;;;;;5011118;28;20443;-46
2023/05/22 06:42:33;;;;;;;25.27;19.07;;;;;;;;;;5015231;28;20474;-47
2023/05/22 06:44:59;;;;;;;25.30;19.80;;;;;;;;;;5014583;28;20419;-46
2023/05/22 06:47:25;;;;;;;29.93;18.90;;;;;;;;;;5014335;28;20771;-46
2023/05/22 06:49:51;;;;;;;22.97;18.90;;;;;;;;;;5014701;28;20407;-48
2023/05/22 06:52:17;;;;;;;23.30;18.50;;;;;;;;;;5014645;28;20948;-48
2023/05/22 06:54:43;;;;;;;23.70;18.27;;;;;;;;;;5014593;28;20412;-47
2023/05/22 06:57:10;;;;;;;25.63;18.97;;;;;;;;;;5014316;28;20418;-47
2023/05/22 06:59:36;;;;;;;25.83;19.57;;;;;;;;;;5016258;28;20420;-48
2023/05/22 07:02:02;;;;;;;24.53;18.83;;;;;;;;;;5014557;28;20511;-48
2023/05/22 07:04:28;;;;;;;24.17;19.30;;;;;;;;;;5011974;28;20425;-48
2023/05/22 07:06:54;;;;;;;23.63;18.90;;;;;;;;;;5013716;28;20472;-46
2023/05/22 07:09:20;;;;;;;22.80;18.50;;;;;;;;;;5014317;28;20405;-47
2023/05/22 07:11:46;;;;;;;19.43;16.73;;;;;;;;;;5014375;28;20467;-49
2023/05/22 07:14:12;;;;;;;22.33;17.93;;;;;;;;;;5009397;28;20437;-48
2023/05/22 07:16:39;;;;;;;25.03;18.00;;;;;;;;;;5011560;28;20409;-47
2023/05/22 07:19:05;;;;;;;25.13;17.77;;;;;;;;;;5006553;28;20894;-48
2023/05/22 07:21:31;;;;;;;26.77;18.07;;;;;;;;;;5004852;28;20465;-46
2023/05/22 07:23:57;;;;;;;26.60;19.83;;;;;;;;;;5013906;28;20437;-47
2023/05/22 07:26:25;;;;;;;25.37;19.73;;;;;;;;;;5013344;28;20597;-48
2023/05/22 07:28:51;;;;;;;26.10;16.87;;;;;;;;;;5013694;28;20429;-47
2023/05/22 07:31:17;;;;;;;21.83;17.70;;;;;;;;;;5012964;28;20419;-47
2023/05/22 07:33:43;;;;;;;24.93;18.67;;;;;;;;;;5013299;28;20447;-47
2023/05/22 07:36:09;;;;;;;24.63;18.43;;;;;;;;;;5013499;28;20417;-47
2023/05/22 07:38:35;;;;;;;22.60;18.07;;;;;;;;;;5010506;28;20457;-48
2023/05/22 07:41:03;;;;;;;23.70;19.57;;;;;;;;;;5007138;28;20565;-47
2023/05/22 07:43:30;;;;;;;18.97;16.00;;;;;;;;;;5012342;28;20486;-46
2023/05/22 07:45:56;;;;;;;20.10;15.87;;;;;;;;;;5013507;28;20466;-47
2023/05/22 07:48:22;;;;;;;18.80;15.47;;;;;;;;;;5013536;28;20454;-47
2023/05/22 07:50:48;;;;;;;18.57;15.83;;;;;;;;;;5013467;28;20421;-46
2023/05/22 07:53:15;;;;;;;20.70;17.27;;;;;;;;;;4996800;28;20427;-46
2023/05/22 07:55:41;;;;;;;21.70;16.13;;;;;;;;;;5007578;28;20993;-47
2023/05/22 07:58:07;;;;;;;24.00;16.00;;;;;;;;;;5013293;28;20501;-46
2023/05/22 08:00:33;;;;;;;20.10;17.20;;;;;;;;;;5024793;28;20419;-48
2023/05/22 08:02:59;;;;;;;18.60;16.50;;;;;;;;;;5013759;28;20799;-46
2023/05/22 08:05:25;;;;;;;20.03;16.13;;;;;;;;;;5013275;28;20426;-47
2023/05/22 08:07:51;;;;;;;21.70;16.57;;;;;;;;;;5012135;28;20467;-47
2023/05/22 08:10:18;;;;;;;20.50;16.00;;;;;;;;;;5013227;28;20972;-47
2023/05/22 08:12:44;;;;;;;21.00;15.00;;;;;;;;;;5012854;28;20788;-47
2023/05/22 08:15:10;;;;;;;20.10;15.10;;;;;;;;;;5012278;28;20408;-46
2023/05/22 08:17:36;;;;;;;17.23;14.73;;;;;;;;;;5012642;28;20426;-47
2023/05/22 08:20:04;;;;;;;17.47;14.40;;;;;;;;;;5006263;28;20427;-46
2023/05/22 08:22:30;;;;;;;15.00;13.50;;;;;;;;;;4993356;28;20933;-47
2023/05/22 08:24:56;;;;;;;14.53;12.83;;;;;;;;;;4994172;28;20410;-47
2023/05/22 08:27:22;;;;;;;17.83;15.17;;;;;;;;;;5012646;28;20468;-47
2023/05/22 08:29:48;;;;;;;16.00;14.17;;;;;;;;;;5012996;28;20401;-47
2023/05/22 08:32:14;;;;;;;16.77;14.77;;;;;;;;;;5012293;28;20774;-47
2023/05/22 08:34:40;;;;;;;15.03;13.43;;;;;;;;;;5019020;28;20790;-46
2023/05/22 08:37:08;;;;;;;19.50;13.93;;;;;;;;;;5020888;28;20435;-47
2023/05/22 08:39:34;;;;;;;18.97;14.73;;;;;;;;;;5012004;28;20433;-46
2023/05/22 08:42:02;;;;;;;17.13;14.17;;;;;;;;;;5012387;28;20830;-47
2023/05/22 08:44:28;;;;;;;15.53;13.13;;;;;;;;;;5012726;28;20620;-47
2023/05/22 08:46:58;;;;;;;15.53;12.87;;;;;;;;;;5012430;28;20450;-47
2023/05/22 08:49:24;;;;;;;35.80;14.67;;;;;;;;;;5012655;28;20419;-48
2023/05/22 08:51:53;;;;;;;19.30;14.43;;;;;;;;;;5012431;28;20786;-47
2023/05/22 08:54:22;;;;;;;15.10;13.60;;;;;;;;;;5012246;28;20451;-47
2023/05/22 08:56:48;;;;;;;14.50;13.00;;;;;;;;;;5012236;28;20415;-48
2023/05/22 08:59:15;;;;;;;17.00;14.73;;;;;;;;;;5012290;28;20918;-47
2023/05/22 09:01:41;;;;;;;37.87;16.20;;;;;;;;;;5012316;28;20411;-47
2023/05/22 09:04:07;;;;;;;18.30;15.37;;;;;;;;;;5011833;28;20774;-47
2023/05/22 09:06:33;;;;;;;31.13;15.50;;;;;;;;;;5011290;28;20466;-48
2023/05/22 09:09:00;;;;;;;17.83;14.73;;;;;;;;;;5011175;28;20970;-48
2023/05/22 09:11:26;;;;;;;17.10;14.50;;;;;;;;;;5012484;28;20403;-48
2023/05/22 09:13:52;;;;;;;24.33;14.77;;;;;;;;;;5020114;28;20521;-47
2023/05/22 09:16:18;;;;;;;23.40;15.43;;;;;;;;;;5012000;28;20457;-47
2023/05/22 09:18:45;;;;;;;19.10;16.23;;;;;;;;;;5005684;28;20438;-48
2023/05/22 09:21:13;;;;;;;17.80;15.40;;;;;;;;;;5011998;28;20419;-48
2023/05/22 09:23:39;;;;;;;18.33;15.90;;;;;;;;;;5011894;28;20427;-46
2023/05/22 09:26:05;;;;;;;21.30;16.37;;;;;;;;;;5011957;28;20438;-46
2023/05/22 09:28:35;;;;;;;28.60;19.50;;;;;;;;;;5011565;28;20478;-48
2023/05/22 09:31:02;;;;;;;22.17;18.27;;;;;;;;;;5010955;28;20457;-47
2023/05/22 09:33:28;;;;;;;22.17;18.17;;;;;;;;;;5010904;28;20463;-48
2023/05/22 09:35:54;;;;;;;28.93;21.47;;;;;;;;;;5011934;28;20450;-47
2023/05/22 09:38:26;;;;;;;28.83;21.60;;;;;;;;;;5007666;28;20415;-47
2023/05/22 09:40:56;;;;;;;39.00;25.37;;;;;;;;;;5011374;28;20450;-47
2023/05/22 09:43:24;;;;;;;44.40;31.60;;;;;;;;;;5011705;28;20438;-47
2023/05/22 09:45:55;;;;;;;49.37;33.90;;;;;;;;;;5011762;28;20418;-47
2023/05/22 09:48:21;;;;;;;44.50;32.60;;;;;;;;;;5011605;28;20462;-46
2023/05/22 09:50:50;;;;;;;48.03;30.03;;;;;;;;;;5011631;28;20417;-47
2023/05/22 09:53:20;;;;;;;38.57;30.10;;;;;;;;;;5009919;28;20438;-47
2023/05/22 09:55:48;;;;;;;38.17;29.20;;;;;;;;;;5013217;28;20415;-47
2023/05/22 09:58:18;;;;;;;54.37;30.63;;;;;;;;;;5010860;28;20411;-47
2023/05/22 10:00:44;;;;;;;40.33;30.10;;;;;;;;;;5009247;28;20551;-46
2023/05/22 10:03:11;;;;;;;30.20;25.60;;;;;;;;;;5010520;28;20927;-47
2023/05/22 10:05:40;;;;;;;33.70;29.43;;;;;;;;;;5011528;28;20409;-48
2023/05/22 10:08:10;;;;;;;31.63;25.67;;;;;;;;;;5004637;28;20459;-48
2023/05/22 10:10:37;;;;;;;32.60;24.57;;;;;;;;;;5011460;28;20990;-46
2023/05/22 10:13:04;;;;;;;25.80;23.10;;;;;;;;;;5011902;28;20511;-46
2023/05/22 10:15:30;;;;;;;28.07;24.50;;;;;;;;;;5011360;28;20421;-48
2023/05/22 10:17:57;;;;;;;28.27;25.07;;;;;;;;;;5011308;28;20469;-48
2023/05/22 10:20:23;;;;;;;29.73;26.73;;;;;;;;;;5011516;28;20442;-47
2023/05/22 10:22:50;;;;;;;31.17;26.80;;;;;;;;;;5011313;28;20443;-46
2023/05/22 10:25:17;;;;;;;30.07;26.87;;;;;;;;;;5011500;28;20439;-47
2023/05/22 10:27:43;;;;;;;36.20;30.20;;;;;;;;;;5010313;28;20457;-48
2023/05/22 10:30:28;;;;;;;35.13;28.67;;;;;;;;;;4994305;28;20448;-48
2023/05/22 10:33:02;;;;;;;30.83;27.63;;;;;;;;;;5007679;28;20743;-48
2023/05/22 10:35:47;;;;;;;32.30;28.80;;;;;;;;;;5012115;28;20643;-49
2023/05/22 10:38:15;;;;;;;37.00;30.43;;;;;;;;;;5011232;28;20821;-46
2023/05/22 10:40:44;;;;;;;34.40;30.80;;;;;;;;;;5014646;28;20434;-47
2023/05/22 10:43:10;;;;;;;31.63;28.13;;;;;;;;;;5015337;28;20455;-46
2023/05/22 10:45:36;;;;;;;40.23;31.93;;;;;;;;;;5014642;28;20418;-46
2023/05/22 10:48:03;;;;;;;32.13;28.83;;;;;;;;;;5014521;28;20458;-46
2023/05/22 10:50:29;;;;;;;40.03;32.47;;;;;;;;;;5015155;28;20396;-47
2023/05/22 10:53:13;;;;;;;33.87;29.33;;;;;;;;;;5014546;28;20927;-47
2023/05/22 10:55:46;;;;;;;32.90;29.40;;;;;;;;;;5014493;28;20418;-46
2023/05/22 10:58:12;;;;;;;33.20;29.60;;;;;;;;;;5014311;28;20419;-46
2023/05/22 11:00:38;;;;;;;38.83;32.77;;;;;;;;;;5013525;28;20459;-47
2023/05/22 11:03:08;;;;;;;33.70;30.20;;;;;;;;;;5013989;28;20787;-47
2023/05/22 11:05:35;;;;;;;35.13;30.13;;;;;;;;;;5014244;28;20529;-46
2023/05/22 11:08:30;;;;;;;32.53;29.20;;;;;;;;;;5013189;28;20466;-47
2023/05/22 11:11:00;;;;;;;35.17;30.40;;;;;;;;;;4997663;28;20835;-47
2023/05/22 11:13:26;;;;;;;31.70;28.07;;;;;;;;;;5014414;28;20923;-48
2023/05/22 11:15:55;;;;;;;31.77;27.33;;;;;;;;;;5014141;28;20465;-48
2023/05/22 11:18:21;;;;;;;32.77;26.83;;;;;;;;;;5014184;28;20411;-47
2023/05/22 11:20:47;;;;;;;31.20;25.07;;;;;;;;;;5014039;28;20423;-46
2023/05/22 11:23:13;;;;;;;32.50;28.87;;;;;;;;;;5014105;28;20431;-47
2023/05/22 11:25:40;;;;;;;33.40;28.30;;;;;;;;;;5014002;28;20415;-46
2023/05/22 11:28:07;;;;;;;32.63;27.00;;;;;;;;;;5013877;28;20463;-47
2023/05/22 11:30:34;;;;;;;34.10;26.87;;;;;;;;;;5012891;28;20909;-47
2023/05/22 11:33:00;;;;;;;29.83;26.47;;;;;;;;;;5013702;28;20435;-46
2023/05/22 11:35:27;;;;;;;38.17;28.23;;;;;;;;;;5019737;28;20407;-47
2023/05/22 11:37:53;;;;;;;29.50;25.93;;;;;;;;;;5013609;28;20414;-47
2023/05/22 11:40:20;;;;;;;36.20;27.97;;;;;;;;;;5013842;28;20981;-46
2023/05/22 11:42:46;;;;;;;39.67;27.77;;;;;;;;;;5013576;28;20505;-47
2023/05/22 11:45:13;;;;;;;30.60;27.30;;;;;;;;;;5013643;28;20412;-46
2023/05/22 11:47:39;;;;;;;30.43;24.97;;;;;;;;;;5013368;28;20502;-46
2023/05/22 11:50:08;;;;;;;28.77;25.67;;;;;;;;;;5013543;28;20414;-47
2023/05/22 11:52:34;;;;;;;29.47;26.27;;;;;;;;;;5013644;28;20462;-47
2023/05/22 11:55:01;;;;;;;28.50;24.80;;;;;;;;;;5013785;28;20403;-47
2023/05/22 11:57:27;;;;;;;27.17;23.97;;;;;;;;;;5013667;28;20414;-47
2023/05/22 11:59:53;;;;;;;25.30;22.57;;;;;;;;;;5013723;28;20450;-47
2023/05/22 12:02:19;;;;;;;27.10;24.30;;;;;;;;;;5012949;28;20513;-47
2023/05/22 12:04:45;;;;;;;25.33;22.67;;;;;;;;;;5012952;28;20518;-46
2023/05/22 12:07:12;;;;;;;25.53;22.83;;;;;;;;;;5013628;28;20908;-46
2023/05/22 12:09:39;;;;;;;28.93;23.90;;;;;;;;;;5013359;28;20899;-46
2023/05/22 12:12:05;;;;;;;27.63;24.80;;;;;;;;;;5013280;28;20433;-48
2023/05/22 12:14:31;;;;;;;32.43;26.13;;;;;;;;;;5013482;28;20434;-46
2023/05/22 12:16:58;;;;;;;25.03;22.33;;;;;;;;;;5013089;28;20412;-46
2023/05/22 12:19:24;;;;;;;25.73;23.00;;;;;;;;;;5013193;28;20418;-46
2023/05/22 12:21:51;;;;;;;31.57;24.20;;;;;;;;;;5013058;28;20422;-47
2023/05/22 12:24:22;;;;;;;26.93;23.70;;;;;;;;;;5013152;28;20521;-46
2023/05/22 12:26:54;;;;;;;28.17;23.20;;;;;;;;;;5012610;28;20494;-47
2023/05/22 12:29:23;;;;;;;27.23;21.37;;;;;;;;;;5013170;28;20903;-46
2023/05/22 12:31:49;;;;;;;26.50;22.67;;;;;;;;;;5012263;28;20497;-47
2023/05/22 12:34:17;;;;;;;25.00;21.97;;;;;;;;;;5015700;28;20926;-46
2023/05/22 12:36:43;;;;;;;29.13;21.40;;;;;;;;;;5011991;28;20426;-46
2023/05/22 12:39:10;;;;;;;23.67;21.13;;;;;;;;;;5012439;28;20411;-47
2023/05/22 12:41:37;;;;;;;24.53;19.43;;;;;;;;;;5009489;28;20974;-47
2023/05/22 12:44:03;;;;;;;22.90;20.50;;;;;;;;;;5013302;28;20545;-45
2023/05/22 12:46:32;;;;;;;23.77;21.00;;;;;;;;;;5012971;28;20651;-46
2023/05/22 12:48:59;;;;;;;24.37;20.27;;;;;;;;;;5005342;28;20907;-45
2023/05/22 12:51:28;;;;;;;24.20;20.93;;;;;;;;;;5013055;28;20416;-45
2023/05/22 12:53:54;;;;;;;23.93;19.87;;;;;;;;;;5012619;28;20885;-46
2023/05/22 12:56:21;;;;;;;20.47;18.37;;;;;;;;;;5011275;28;20441;-45
2023/05/22 12:58:47;;;;;;;20.27;18.17;;;;;;;;;;5021985;28;20894;-45
2023/05/22 13:01:13;;;;;;;20.63;18.43;;;;;;;;;;5017095;28;20506;-45
2023/05/22 13:03:39;;;;;;;21.60;19.50;;;;;;;;;;5011574;28;20880;-44
2023/05/22 13:06:05;;;;;;;20.37;18.23;;;;;;;;;;5011814;28;20427;-45
2023/05/22 13:08:31;;;;;;;20.30;17.53;;;;;;;;;;5012432;28;20829;-45
2023/05/22 13:10:57;;;;;;;20.83;18.70;;;;;;;;;;5012920;28;20410;-45
2023/05/22 13:13:23;;;;;;;20.20;17.20;;;;;;;;;;5012564;28;20690;-46
2023/05/22 13:15:49;;;;;;;19.93;16.83;;;;;;;;;;5012552;28;20572;-45
2023/05/22 13:18:15;;;;;;;19.37;17.37;;;;;;;;;;5011196;28;20469;-45
2023/05/22 13:20:41;;;;;;;19.83;16.30;;;;;;;;;;5012536;28;20415;-45
2023/05/22 13:23:07;;;;;;;22.73;17.30;;;;;;;;;;5011949;28;20439;-45
2023/05/22 13:25:33;;;;;;;18.97;16.60;;;;;;;;;;5012622;28;20418;-45
2023/05/22 13:27:59;;;;;;;18.17;16.23;;;;;;;;;;5012494;28;20294;-45
2023/05/22 13:30:25;;;;;;;17.33;15.60;;;;;;;;;;5012802;28;20395;-46
2023/05/22 13:32:52;;;;;;;20.43;16.67;;;;;;;;;;5011566;28;20455;-45
2023/05/22 13:35:18;;;;;;;18.20;16.50;;;;;;;;;;5015103;28;20903;-46
2023/05/22 13:37:44;;;;;;;23.77;16.67;;;;;;;;;;5011759;28;20459;-45
2023/05/22 13:40:10;;;;;;;19.90;15.17;;;;;;;;;;5006175;28;20450;-45
2023/05/22 13:42:36;;;;;;;20.30;18.33;;;;;;;;;;5011593;28;20453;-45
2023/05/22 13:45:03;;;;;;;16.40;14.87;;;;;;;;;;5011252;28;20773;-45
2023/05/22 13:47:29;;;;;;;16.63;15.00;;;;;;;;;;5012156;28;20997;-45
2023/05/22 13:49:55;;;;;;;15.63;14.23;;;;;;;;;;5012396;28;20966;-45
2023/05/22 13:52:22;;;;;;;18.33;16.10;;;;;;;;;;5012444;28;20430;-44
2023/05/22 13:54:48;;;;;;;21.13;18.07;;;;;;;;;;5011206;28;20180;-45
2023/05/22 13:57:13;;;;;;;17.80;15.20;;;;;;;;;;5009051;28;20430;-45
2023/05/22 13:59:39;;;;;;;21.47;17.33;;;;;;;;;;5010163;28;20277;-45
2023/05/22 14:02:06;;;;;;;15.80;13.77;;;;;;;;;;5009002;28;20427;-45
2023/05/22 14:04:32;;;;;;;15.60;14.20;;;;;;;;;;5010541;28;20842;-44
2023/05/22 14:06:58;;;;;;;16.17;14.13;;;;;;;;;;5010209;28;20506;-44
2023/05/22 14:09:24;;;;;;;18.43;16.50;;;;;;;;;;5011103;28;20398;-45
2023/05/22 14:11:50;;;;;;;17.50;14.73;;;;;;;;;;5011870;28;21133;-46
2023/05/22 14:14:22;;;;;;;14.30;12.60;;;;;;;;;;5015306;28;20470;-46